sensor_id;sensor_type;location;lat;lon;timestamp;pressure;altitude;pressure_sealevel;temperature;humidity
55066;BME280;40964;42.114;24.220;2023-04-09T00:01:09;98147.06;;;7.32;100.00
55066;BME280;40964;42.114;24.220;2023-04-09T00:03:36;98151.88;;;7.29;100.00
55066;BME280;40964;42.114;24.220;2023-04-09T00:06:02;98155.34;;;7.36;100.00
55066;BME280;40964;42.114;24.220;2023-04-09T00:08:28;98150.16;;;7.43;100.00
55066;BME280;40964;42.114;24.220;2023-04-09T00:10:54;98156.28;;;7.50;100.00
55066;BME280;40964;42.114;24.220;2023-04-09T00:13:20;98156.72;;;7.53;100.00
55066;BME280;40964;42.114;24.220;2023-04-09T00:15:45;98164.81;;;7.58;100.00
55066;BME280;40964;42.114;24.220;2023-04-09T00:18:12;98154.34;;;7.58;100.00
55066;BME280;40964;42.114;24.220;2023-04-09T00:20:37;98154.41;;;7.65;100.00
55066;BME280;40964;42.114;24.220;2023-04-09T00:23:03;98157.66;;;7.67;100.00
55066;BME280;40964;42.114;24.220;2023-04-09T00:25:28;98153.16;;;7.61;100.00
55066;BME280;40964;42.114;24.220;2023-04-09T00:27:54;98160.47;;;7.65;100.00
55066;BME280;40964;42.114;24.220;2023-04-09T00:30:20;98158.66;;;7.66;100.00
55066;BME280;40964;42.114;24.220;2023-04-09T00:32:45;98159.31;;;7.53;100.00
55066;BME280;40964;42.114;24.220;2023-04-09T00:37:55;98163.56;;;7.33;100.00
55066;BME280;40964;42.114;24.220;2023-04-09T00:40:20;98163.03;;;7.37;100.00
55066;BME280;40964;42.114;24.220;2023-04-09T00:42:46;98158.84;;;7.43;100.00
55066;BME280;40964;42.114;24.220;2023-04-09T00:45:12;98160.63;;;7.43;100.00
55066;BME280;40964;42.114;24.220;2023-04-09T00:47:38;98147.78;;;7.26;100.00
55066;BME280;40964;42.114;24.220;2023-04-09T00:50:03;98164.75;;;7.30;100.00
55066;BME280;40964;42.114;24.220;2023-04-09T00:52:29;98168.72;;;7.26;100.00
55066;BME280;40964;42.114;24.220;2023-04-09T00:54:55;98159.34;;;7.32;100.00
55066;BME280;40964;42.114;24.220;2023-04-09T00:57:23;98167.72;;;7.27;100.00
55066;BME280;40964;42.114;24.220;2023-04-09T00:59:48;98164.13;;;7.28;100.00
55066;BME280;40964;42.114;24.220;2023-04-09T01:02:14;98167.38;;;7.30;100.00
55066;BME280;40964;42.114;24.220;2023-04-09T01:04:41;98163.94;;;7.30;100.00
55066;BME280;40964;42.114;24.220;2023-04-09T01:10:01;98157.78;;;7.37;100.00
55066;BME280;40964;42.114;24.220;2023-04-09T01:12:47;98173.72;;;7.43;100.00
55066;BME280;40964;42.114;24.220;2023-04-09T01:15:22;98172.09;;;7.42;100.00
55066;BME280;40964;42.114;24.220;2023-04-09T01:17:53;98153.91;;;7.33;100.00
55066;BME280;40964;42.114;24.220;2023-04-09T01:20:42;98165.44;;;7.39;100.00
55066;BME280;40964;42.114;24.220;2023-04-09T01:23:31;98167.81;;;7.34;100.00
55066;BME280;40964;42.114;24.220;2023-04-09T01:28:53;98171.16;;;7.28;100.00
55066;BME280;40964;42.114;24.220;2023-04-09T01:31:20;98175.34;;;7.22;100.00
55066;BME280;40964;42.114;24.220;2023-04-09T01:33:50;98170.22;;;7.14;100.00
55066;BME280;40964;42.114;24.220;2023-04-09T01:36:17;98177.00;;;7.08;100.00
55066;BME280;40964;42.114;24.220;2023-04-09T01:38:43;98154.63;;;7.06;100.00
55066;BME280;40964;42.114;24.220;2023-04-09T01:41:14;98171.75;;;7.08;100.00
55066;BME280;40964;42.114;24.220;2023-04-09T01:43:42;98173.22;;;7.11;100.00
55066;BME280;40964;42.114;24.220;2023-04-09T01:46:08;98173.56;;;7.08;100.00
55066;BME280;40964;42.114;24.220;2023-04-09T01:48:35;98172.03;;;7.14;100.00
55066;BME280;40964;42.114;24.220;2023-04-09T01:51:01;98172.13;;;7.05;100.00
55066;BME280;40964;42.114;24.220;2023-04-09T01:53:27;98171.13;;;7.06;100.00
55066;BME280;40964;42.114;24.220;2023-04-09T01:55:58;98176.47;;;6.98;100.00
55066;BME280;40964;42.114;24.220;2023-04-09T01:58:24;98168.81;;;6.97;100.00
55066;BME280;40964;42.114;24.220;2023-04-09T02:00:51;98177.56;;;6.89;100.00
55066;BME280;40964;42.114;24.220;2023-04-09T02:03:29;98178.38;;;6.90;100.00
55066;BME280;40964;42.114;24.220;2023-04-09T02:08:27;98172.09;;;6.84;100.00
55066;BME280;40964;42.114;24.220;2023-04-09T02:10:57;98176.69;;;6.82;100.00
55066;BME280;40964;42.114;24.220;2023-04-09T02:13:23;98184.81;;;6.72;100.00
55066;BME280;40964;42.114;24.220;2023-04-09T02:15:51;98174.16;;;6.74;100.00
55066;BME280;40964;42.114;24.220;2023-04-09T02:18:27;98185.72;;;6.79;100.00
55066;BME280;40964;42.114;24.220;2023-04-09T02:20:54;98197.69;;;6.89;100.00
55066;BME280;40964;42.114;24.220;2023-04-09T02:23:21;98178.06;;;6.78;100.00
55066;BME280;40964;42.114;24.220;2023-04-09T02:25:47;98194.25;;;6.88;100.00
55066;BME280;40964;42.114;24.220;2023-04-09T02:28:12;98188.94;;;6.81;100.00
55066;BME280;40964;42.114;24.220;2023-04-09T02:30:37;98188.59;;;6.85;100.00
55066;BME280;40964;42.114;24.220;2023-04-09T02:33:03;98182.88;;;6.96;100.00
55066;BME280;40964;42.114;24.220;2023-04-09T02:35:29;98186.50;;;6.80;100.00
55066;BME280;40964;42.114;24.220;2023-04-09T02:37:54;98183.72;;;6.81;100.00
55066;BME280;40964;42.114;24.220;2023-04-09T02:40:20;98185.28;;;6.76;100.00
55066;BME280;40964;42.114;24.220;2023-04-09T02:42:45;98186.69;;;6.78;100.00
55066;BME280;40964;42.114;24.220;2023-04-09T02:45:11;98185.91;;;6.78;100.00
55066;BME280;40964;42.114;24.220;2023-04-09T02:47:36;98187.06;;;6.75;100.00
55066;BME280;40964;42.114;24.220;2023-04-09T02:50:02;98184.00;;;6.72;100.00
55066;BME280;40964;42.114;24.220;2023-04-09T02:52:31;98179.22;;;6.75;100.00
55066;BME280;40964;42.114;24.220;2023-04-09T02:54:57;98179.56;;;6.72;100.00
55066;BME280;40964;42.114;24.220;2023-04-09T02:57:22;98177.88;;;6.65;100.00
55066;BME280;40964;42.114;24.220;2023-04-09T02:59:48;98181.31;;;6.50;100.00
55066;BME280;40964;42.114;24.220;2023-04-09T03:02:13;98179.69;;;6.49;100.00
55066;BME280;40964;42.114;24.220;2023-04-09T03:04:39;98186.53;;;6.50;100.00
55066;BME280;40964;42.114;24.220;2023-04-09T03:07:04;98172.50;;;6.51;100.00
55066;BME280;40964;42.114;24.220;2023-04-09T03:09:30;98167.00;;;6.32;100.00
55066;BME280;40964;42.114;24.220;2023-04-09T03:11:56;98172.31;;;6.38;100.00
55066;BME280;40964;42.114;24.220;2023-04-09T03:14:22;98184.03;;;6.42;100.00
55066;BME280;40964;42.114;24.220;2023-04-09T03:16:48;98180.41;;;6.43;100.00
55066;BME280;40964;42.114;24.220;2023-04-09T03:19:14;98185.75;;;6.50;100.00
55066;BME280;40964;42.114;24.220;2023-04-09T03:21:39;98177.44;;;6.32;100.00
55066;BME280;40964;42.114;24.220;2023-04-09T03:24:05;98188.44;;;6.42;100.00
55066;BME280;40964;42.114;24.220;2023-04-09T03:26:31;98189.25;;;6.42;100.00
55066;BME280;40964;42.114;24.220;2023-04-09T03:29:04;98191.66;;;6.44;100.00
55066;BME280;40964;42.114;24.220;2023-04-09T03:31:30;98191.97;;;6.49;100.00
55066;BME280;40964;42.114;24.220;2023-04-09T03:33:56;98199.53;;;6.59;100.00
55066;BME280;40964;42.114;24.220;2023-04-09T03:36:21;98199.06;;;6.55;100.00
55066;BME280;40964;42.114;24.220;2023-04-09T03:38:47;98202.31;;;6.57;100.00
55066;BME280;40964;42.114;24.220;2023-04-09T03:41:13;98203.56;;;6.61;100.00
55066;BME280;40964;42.114;24.220;2023-04-09T03:43:38;98205.94;;;6.56;100.00
55066;BME280;40964;42.114;24.220;2023-04-09T03:46:14;98208.28;;;6.66;100.00
55066;BME280;40964;42.114;24.220;2023-04-09T03:48:40;98206.38;;;6.60;100.00
55066;BME280;40964;42.114;24.220;2023-04-09T03:51:05;98221.75;;;6.54;100.00
55066;BME280;40964;42.114;24.220;2023-04-09T03:53:31;98225.47;;;6.60;100.00
55066;BME280;40964;42.114;24.220;2023-04-09T03:55:56;98213.94;;;6.54;100.00
55066;BME280;40964;42.114;24.220;2023-04-09T03:58:22;98216.09;;;6.51;100.00
55066;BME280;40964;42.114;24.220;2023-04-09T04:00:47;98218.97;;;6.41;100.00
55066;BME280;40964;42.114;24.220;2023-04-09T04:03:13;98200.56;;;6.20;100.00
55066;BME280;40964;42.114;24.220;2023-04-09T04:05:40;98217.69;;;6.22;100.00
55066;BME280;40964;42.114;24.220;2023-04-09T04:08:06;98217.28;;;6.11;100.00
55066;BME280;40964;42.114;24.220;2023-04-09T04:10:33;98235.25;;;6.29;100.00
55066;BME280;40964;42.114;24.220;2023-04-09T04:12:58;98236.25;;;6.28;100.00
55066;BME280;40964;42.114;24.220;2023-04-09T04:15:24;98235.91;;;6.31;100.00
55066;BME280;40964;42.114;24.220;2023-04-09T04:17:49;98236.53;;;6.33;100.00
55066;BME280;40964;42.114;24.220;2023-04-09T04:20:14;98229.22;;;6.28;100.00
55066;BME280;40964;42.114;24.220;2023-04-09T04:22:40;98216.78;;;6.15;100.00
55066;BME280;40964;42.114;24.220;2023-04-09T04:25:05;98233.47;;;6.29;100.00
55066;BME280;40964;42.114;24.220;2023-04-09T04:27:31;98231.81;;;6.28;100.00
55066;BME280;40964;42.114;24.220;2023-04-09T04:29:57;98219.13;;;6.25;100.00
55066;BME280;40964;42.114;24.220;2023-04-09T04:32:24;98229.78;;;6.38;100.00
55066;BME280;40964;42.114;24.220;2023-04-09T04:34:49;98238.50;;;6.31;100.00
55066;BME280;40964;42.114;24.220;2023-04-09T04:37:15;98242.63;;;6.25;100.00
55066;BME280;40964;42.114;24.220;2023-04-09T04:39:40;98235.16;;;6.22;100.00
55066;BME280;40964;42.114;24.220;2023-04-09T04:42:06;98239.84;;;6.12;100.00
55066;BME280;40964;42.114;24.220;2023-04-09T04:44:31;98234.50;;;6.20;100.00
55066;BME280;40964;42.114;24.220;2023-04-09T04:46:57;98228.09;;;6.08;100.00
55066;BME280;40964;42.114;24.220;2023-04-09T04:49:22;98237.38;;;6.10;100.00
55066;BME280;40964;42.114;24.220;2023-04-09T04:51:48;98233.81;;;6.11;100.00
55066;BME280;40964;42.114;24.220;2023-04-09T04:54:13;98237.22;;;6.12;100.00
55066;BME280;40964;42.114;24.220;2023-04-09T04:56:38;98236.56;;;6.10;100.00
55066;BME280;40964;42.114;24.220;2023-04-09T04:59:04;98237.38;;;6.10;100.00
55066;BME280;40964;42.114;24.220;2023-04-09T05:01:29;98231.00;;;6.13;100.00
55066;BME280;40964;42.114;24.220;2023-04-09T05:03:55;98237.22;;;6.12;100.00
55066;BME280;40964;42.114;24.220;2023-04-09T05:06:20;98246.59;;;6.21;100.00
55066;BME280;40964;42.114;24.220;2023-04-09T05:08:46;98238.66;;;6.14;100.00
55066;BME280;40964;42.114;24.220;2023-04-09T05:11:11;98231.72;;;6.07;100.00
55066;BME280;40964;42.114;24.220;2023-04-09T05:13:37;98237.22;;;6.12;100.00
55066;BME280;40964;42.114;24.220;2023-04-09T05:16:03;98231.34;;;6.10;100.00
55066;BME280;40964;42.114;24.220;2023-04-09T05:18:28;98238.13;;;6.19;100.00
55066;BME280;40964;42.114;24.220;2023-04-09T05:20:53;98239.34;;;6.08;100.00
55066;BME280;40964;42.114;24.220;2023-04-09T05:23:19;98238.19;;;6.11;100.00
55066;BME280;40964;42.114;24.220;2023-04-09T05:25:47;98241.72;;;6.18;100.00
55066;BME280;40964;42.114;24.220;2023-04-09T05:28:13;98240.41;;;6.22;100.00
55066;BME280;40964;42.114;24.220;2023-04-09T05:30:44;98245.63;;;6.22;100.00
55066;BME280;40964;42.114;24.220;2023-04-09T05:33:10;98240.41;;;6.22;100.00
55066;BME280;40964;42.114;24.220;2023-04-09T05:35:39;98244.00;;;6.21;100.00
55066;BME280;40964;42.114;24.220;2023-04-09T05:38:04;98251.34;;;6.17;100.00
55066;BME280;40964;42.114;24.220;2023-04-09T05:40:30;98249.22;;;6.21;100.00
55066;BME280;40964;42.114;24.220;2023-04-09T05:42:58;98242.78;;;6.09;100.00
55066;BME280;40964;42.114;24.220;2023-04-09T05:45:23;98255.25;;;6.21;100.00
55066;BME280;40964;42.114;24.220;2023-04-09T05:47:49;98255.88;;;6.23;100.00
55066;BME280;40964;42.114;24.220;2023-04-09T05:50:14;98248.59;;;6.34;100.00
55066;BME280;40964;42.114;24.220;2023-04-09T05:52:40;98255.81;;;6.32;100.00
55066;BME280;40964;42.114;24.220;2023-04-09T05:55:06;98260.03;;;6.33;100.00
55066;BME280;40964;42.114;24.220;2023-04-09T05:57:32;98257.97;;;6.43;100.00
55066;BME280;40964;42.114;24.220;2023-04-09T05:59:57;98260.88;;;6.48;100.00
55066;BME280;40964;42.114;24.220;2023-04-09T06:02:23;98259.22;;;6.47;100.00
55066;BME280;40964;42.114;24.220;2023-04-09T06:04:49;98252.13;;;6.41;100.00
55066;BME280;40964;42.114;24.220;2023-04-09T06:07:15;98260.69;;;6.49;100.00
55066;BME280;40964;42.114;24.220;2023-04-09T06:09:40;98271.84;;;6.43;100.00
55066;BME280;40964;42.114;24.220;2023-04-09T06:12:08;98274.50;;;6.58;100.00
55066;BME280;40964;42.114;24.220;2023-04-09T06:14:33;98274.41;;;6.66;100.00
55066;BME280;40964;42.114;24.220;2023-04-09T06:16:59;98265.84;;;6.58;100.00
55066;BME280;40964;42.114;24.220;2023-04-09T06:19:25;98280.00;;;6.78;100.00
55066;BME280;40964;42.114;24.220;2023-04-09T06:21:50;98279.19;;;6.92;100.00
55066;BME280;40964;42.114;24.220;2023-04-09T06:24:15;98270.69;;;7.05;100.00
55066;BME280;40964;42.114;24.220;2023-04-09T06:26:41;98273.75;;;7.08;100.00
55066;BME280;40964;42.114;24.220;2023-04-09T06:29:06;98272.69;;;7.03;100.00
55066;BME280;40964;42.114;24.220;2023-04-09T06:31:32;98268.56;;;6.94;100.00
55066;BME280;40964;42.114;24.220;2023-04-09T06:33:58;98273.06;;;6.85;100.00
55066;BME280;40964;42.114;24.220;2023-04-09T06:38:57;98278.19;;;6.78;100.00
55066;BME280;40964;42.114;24.220;2023-04-09T06:41:24;98246.28;;;6.53;100.00
55066;BME280;40964;42.114;24.220;2023-04-09T06:43:51;98278.09;;;6.72;100.00
55066;BME280;40964;42.114;24.220;2023-04-09T06:46:16;98270.81;;;6.67;100.00
55066;BME280;40964;42.114;24.220;2023-04-09T06:48:44;98278.19;;;6.78;100.00
55066;BME280;40964;42.114;24.220;2023-04-09T06:51:10;98277.81;;;6.81;100.00
55066;BME280;40964;42.114;24.220;2023-04-09T06:53:37;98264.13;;;6.79;100.00
55066;BME280;40964;42.114;24.220;2023-04-09T06:56:02;98279.28;;;6.84;100.00
55066;BME280;40964;42.114;24.220;2023-04-09T06:58:28;98283.25;;;6.95;100.00
55066;BME280;40964;42.114;24.220;2023-04-09T07:00:53;98280.06;;;6.99;100.00
55066;BME280;40964;42.114;24.220;2023-04-09T07:03:19;98275.50;;;6.87;100.00
55066;BME280;40964;42.114;24.220;2023-04-09T07:05:45;98280.91;;;6.85;100.00
55066;BME280;40964;42.114;24.220;2023-04-09T07:08:10;98284.34;;;6.86;100.00
55066;BME280;40964;42.114;24.220;2023-04-09T07:10:35;98285.56;;;6.90;100.00
55066;BME280;40964;42.114;24.220;2023-04-09T07:13:01;98290.91;;;6.96;100.00
55066;BME280;40964;42.114;24.220;2023-04-09T07:15:27;98282.44;;;6.94;100.00
55066;BME280;40964;42.114;24.220;2023-04-09T07:17:52;98292.28;;;6.92;100.00
55066;BME280;40964;42.114;24.220;2023-04-09T07:20:18;98286.19;;;6.92;100.00
55066;BME280;40964;42.114;24.220;2023-04-09T07:22:43;98277.03;;;6.96;100.00
55066;BME280;40964;42.114;24.220;2023-04-09T07:25:09;98287.28;;;6.97;100.00
55066;BME280;40964;42.114;24.220;2023-04-09T07:27:34;98292.72;;;6.96;100.00
55066;BME280;40964;42.114;24.220;2023-04-09T07:30:00;98289.91;;;6.97;100.00
55066;BME280;40964;42.114;24.220;2023-04-09T07:32:26;98296.28;;;7.09;100.00
55066;BME280;40964;42.114;24.220;2023-04-09T07:34:55;98301.28;;;7.04;100.00
55066;BME280;40964;42.114;24.220;2023-04-09T07:37:21;98297.75;;;7.12;100.00
55066;BME280;40964;42.114;24.220;2023-04-09T07:39:47;98298.09;;;7.24;100.00
55066;BME280;40964;42.114;24.220;2023-04-09T07:42:13;98298.63;;;7.34;100.00
55066;BME280;40964;42.114;24.220;2023-04-09T07:44:39;98312.78;;;7.39;100.00
55066;BME280;40964;42.114;24.220;2023-04-09T07:47:06;98302.84;;;7.35;100.00
55066;BME280;40964;42.114;24.220;2023-04-09T07:49:32;98301.53;;;7.24;100.00
55066;BME280;40964;42.114;24.220;2023-04-09T07:52:00;98297.81;;;7.19;100.00
55066;BME280;40964;42.114;24.220;2023-04-09T07:54:28;98304.22;;;7.16;100.00
55066;BME280;40964;42.114;24.220;2023-04-09T07:56:56;98305.03;;;7.31;100.00
55066;BME280;40964;42.114;24.220;2023-04-09T07:59:22;98305.66;;;7.19;100.00
55066;BME280;40964;42.114;24.220;2023-04-09T08:01:47;98310.16;;;7.39;100.00
55066;BME280;40964;42.114;24.220;2023-04-09T08:04:13;98310.47;;;7.66;100.00
55066;BME280;40964;42.114;24.220;2023-04-09T08:06:38;98296.63;;;7.72;100.00
55066;BME280;40964;42.114;24.220;2023-04-09T08:09:04;98303.38;;;7.81;100.00
55066;BME280;40964;42.114;24.220;2023-04-09T08:11:29;98301.63;;;7.88;100.00
55066;BME280;40964;42.114;24.220;2023-04-09T08:13:55;98305.31;;;7.94;100.00
55066;BME280;40964;42.114;24.220;2023-04-09T08:16:21;98290.81;;;7.91;100.00
55066;BME280;40964;42.114;24.220;2023-04-09T08:18:51;98306.50;;;8.13;100.00
55066;BME280;40964;42.114;24.220;2023-04-09T08:21:17;98305.19;;;8.23;100.00
55066;BME280;40964;42.114;24.220;2023-04-09T08:23:42;98304.44;;;8.30;99.16
55066;BME280;40964;42.114;24.220;2023-04-09T08:26:08;98303.56;;;8.22;97.95
55066;BME280;40964;42.114;24.220;2023-04-09T08:28:33;98307.56;;;8.18;99.53
55066;BME280;40964;42.114;24.220;2023-04-09T08:30:58;98284.78;;;8.40;98.60
55066;BME280;40964;42.114;24.220;2023-04-09T08:33:24;98300.28;;;8.63;98.18
55066;BME280;40964;42.114;24.220;2023-04-09T08:35:50;98296.31;;;8.74;96.89
55066;BME280;40964;42.114;24.220;2023-04-09T08:38:17;98293.31;;;9.12;95.59
55066;BME280;40964;42.114;24.220;2023-04-09T08:40:43;98299.94;;;9.07;93.43
55066;BME280;40964;42.114;24.220;2023-04-09T08:43:09;98290.09;;;9.16;92.21
55066;BME280;40964;42.114;24.220;2023-04-09T08:45:40;98289.09;;;9.24;91.96
55066;BME280;40964;42.114;24.220;2023-04-09T08:48:08;98297.88;;;9.37;90.11
55066;BME280;40964;42.114;24.220;2023-04-09T08:50:33;98286.38;;;9.45;91.70
55066;BME280;40964;42.114;24.220;2023-04-09T08:53:02;98298.06;;;9.36;91.93
55066;BME280;40964;42.114;24.220;2023-04-09T08:55:29;98296.03;;;9.38;92.00
55066;BME280;40964;42.114;24.220;2023-04-09T08:57:56;98303.34;;;9.49;90.13
55066;BME280;40964;42.114;24.220;2023-04-09T09:00:22;98275.25;;;9.43;89.43
55066;BME280;40964;42.114;24.220;2023-04-09T09:03:10;98287.19;;;9.52;87.51
55066;BME280;40964;42.114;24.220;2023-04-09T09:05:42;98293.94;;;9.75;90.13
55066;BME280;40964;42.114;24.220;2023-04-09T09:08:09;98286.50;;;9.91;87.08
55066;BME280;40964;42.114;24.220;2023-04-09T09:10:44;98273.78;;;10.02;87.82
55066;BME280;40964;42.114;24.220;2023-04-09T09:13:24;98264.06;;;9.89;87.48
55066;BME280;40964;42.114;24.220;2023-04-09T09:15:51;98281.59;;;9.75;87.26
55066;BME280;40964;42.114;24.220;2023-04-09T09:18:20;98265.44;;;9.78;86.78
55066;BME280;40964;42.114;24.220;2023-04-09T09:20:46;98268.06;;;9.78;86.85
55066;BME280;40964;42.114;24.220;2023-04-09T09:23:11;98270.13;;;9.83;87.37
55066;BME280;40964;42.114;24.220;2023-04-09T09:25:40;98276.59;;;10.00;87.07
55066;BME280;40964;42.114;24.220;2023-04-09T09:28:10;98280.66;;;10.09;85.84
55066;BME280;40964;42.114;24.220;2023-04-09T09:30:37;98281.50;;;10.30;84.88
55066;BME280;40964;42.114;24.220;2023-04-09T09:33:06;98274.63;;;10.29;82.81
55066;BME280;40964;42.114;24.220;2023-04-09T09:35:51;98275.00;;;10.12;83.03
55066;BME280;40964;42.114;24.220;2023-04-09T09:38:19;98267.13;;;10.32;81.64
55066;BME280;40964;42.114;24.220;2023-04-09T09:40:45;98259.47;;;10.44;80.90
55066;BME280;40964;42.114;24.220;2023-04-09T09:43:11;98261.25;;;10.70;81.33
55066;BME280;40964;42.114;24.220;2023-04-09T09:45:37;98248.44;;;10.87;80.81
55066;BME280;40964;42.114;24.220;2023-04-09T09:48:04;98252.88;;;11.44;79.62
55066;BME280;40964;42.114;24.220;2023-04-09T09:50:30;98253.75;;;11.70;75.62
55066;BME280;40964;42.114;24.220;2023-04-09T09:53:00;98258.06;;;11.57;76.89
55066;BME280;40964;42.114;24.220;2023-04-09T09:55:30;98250.81;;;11.91;73.51
55066;BME280;40964;42.114;24.220;2023-04-09T09:57:57;98250.84;;;12.16;72.69
55066;BME280;40964;42.114;24.220;2023-04-09T10:00:27;98255.31;;;12.40;71.62
55066;BME280;40964;42.114;24.220;2023-04-09T10:02:57;98250.03;;;12.40;71.92
55066;BME280;40964;42.114;24.220;2023-04-09T10:05:23;98238.53;;;12.03;71.45
55066;BME280;40964;42.114;24.220;2023-04-09T10:07:56;98242.97;;;12.09;72.23
55066;BME280;40964;42.114;24.220;2023-04-09T10:10:23;98231.72;;;11.57;73.22
55066;BME280;40964;42.114;24.220;2023-04-09T10:12:49;98242.91;;;11.53;73.13
55066;BME280;40964;42.114;24.220;2023-04-09T10:15:15;98246.22;;;11.42;73.21
55066;BME280;40964;42.114;24.220;2023-04-09T10:17:41;98232.63;;;11.45;74.59
55066;BME280;40964;42.114;24.220;2023-04-09T10:20:11;98231.03;;;11.37;74.70
55066;BME280;40964;42.114;24.220;2023-04-09T10:22:39;98228.63;;;11.67;76.30
55066;BME280;40964;42.114;24.220;2023-04-09T10:25:05;98239.88;;;11.49;73.61
55066;BME280;40964;42.114;24.220;2023-04-09T10:27:30;98229.06;;;11.26;74.57
55066;BME280;40964;42.114;24.220;2023-04-09T10:29:56;98212.13;;;11.08;74.82
55066;BME280;40964;42.114;24.220;2023-04-09T10:32:24;98226.41;;;10.81;76.56
55066;BME280;40964;42.114;24.220;2023-04-09T10:34:56;98228.81;;;10.83;77.62
55066;BME280;40964;42.114;24.220;2023-04-09T10:37:25;98218.13;;;11.22;77.30
55066;BME280;40964;42.114;24.220;2023-04-09T10:39:52;98222.44;;;11.55;76.52
55066;BME280;40964;42.114;24.220;2023-04-09T10:42:38;98217.59;;;11.83;73.36
55066;BME280;40964;42.114;24.220;2023-04-09T10:45:09;98211.44;;;11.96;73.53
55066;BME280;40964;42.114;24.220;2023-04-09T10:47:40;98211.97;;;12.30;72.85
55066;BME280;40964;42.114;24.220;2023-04-09T10:50:26;98212.06;;;11.91;71.99
55066;BME280;40964;42.114;24.220;2023-04-09T10:52:56;98200.78;;;12.09;71.86
55066;BME280;40964;42.114;24.220;2023-04-09T10:55:38;98201.38;;;12.11;72.21
55066;BME280;40964;42.114;24.220;2023-04-09T10:58:08;98195.09;;;11.87;72.98
55066;BME280;40964;42.114;24.220;2023-04-09T11:00:38;98184.88;;;11.98;71.65
55066;BME280;40964;42.114;24.220;2023-04-09T11:05:34;98189.31;;;12.22;70.44
55066;BME280;40964;42.114;24.220;2023-04-09T11:08:12;98191.56;;;12.18;69.89
55066;BME280;40964;42.114;24.220;2023-04-09T11:10:40;98188.06;;;12.49;69.59
55066;BME280;40964;42.114;24.220;2023-04-09T11:13:10;98181.88;;;12.37;67.95
55066;BME280;40964;42.114;24.220;2023-04-09T11:15:35;98182.41;;;12.21;69.66
55066;BME280;40964;42.114;24.220;2023-04-09T11:18:05;98178.78;;;11.97;69.09
55066;BME280;40964;42.114;24.220;2023-04-09T11:20:34;98168.50;;;11.89;68.95
55066;BME280;40964;42.114;24.220;2023-04-09T11:23:00;98167.28;;;11.91;69.62
55066;BME280;40964;42.114;24.220;2023-04-09T11:25:30;98176.03;;;11.85;68.85
55066;BME280;40964;42.114;24.220;2023-04-09T11:27:57;98173.34;;;11.92;70.36
55066;BME280;40964;42.114;24.220;2023-04-09T11:30:22;98168.28;;;11.90;69.29
55066;BME280;40964;42.114;24.220;2023-04-09T11:32:49;98169.91;;;11.91;70.35
55066;BME280;40964;42.114;24.220;2023-04-09T11:35:17;98166.38;;;12.04;70.68
55066;BME280;40964;42.114;24.220;2023-04-09T11:37:44;98169.81;;;12.05;69.89
55066;BME280;40964;42.114;24.220;2023-04-09T11:40:19;98163.59;;;12.17;68.80
55066;BME280;40964;42.114;24.220;2023-04-09T11:42:48;98166.19;;;12.24;69.51
55066;BME280;40964;42.114;24.220;2023-04-09T11:45:14;98162.19;;;12.76;70.71
55066;BME280;40964;42.114;24.220;2023-04-09T11:47:40;98167.75;;;12.87;67.36
55066;BME280;40964;42.114;24.220;2023-04-09T11:50:08;98151.94;;;12.98;66.11
55066;BME280;40964;42.114;24.220;2023-04-09T11:52:34;98148.72;;;12.96;66.76
55066;BME280;40964;42.114;24.220;2023-04-09T11:55:03;98138.75;;;12.98;64.89
55066;BME280;40964;42.114;24.220;2023-04-09T11:57:42;98143.63;;;13.13;64.88
55066;BME280;40964;42.114;24.220;2023-04-09T12:00:12;98138.22;;;13.08;64.89
55066;BME280;40964;42.114;24.220;2023-04-09T12:02:46;98136.25;;;13.33;64.90
55066;BME280;40964;42.114;24.220;2023-04-09T12:05:23;98130.69;;;13.53;61.48
55066;BME280;40964;42.114;24.220;2023-04-09T12:07:49;98127.16;;;13.83;58.09
55066;BME280;40964;42.114;24.220;2023-04-09T12:10:15;98119.69;;;13.91;56.96
55066;BME280;40964;42.114;24.220;2023-04-09T12:12:46;98128.53;;;13.74;55.53
55066;BME280;40964;42.114;24.220;2023-04-09T12:17:50;98113.16;;;13.94;55.47
55066;BME280;40964;42.114;24.220;2023-04-09T12:20:32;98119.56;;;13.63;54.82
55066;BME280;40964;42.114;24.220;2023-04-09T12:22:59;98113.94;;;13.83;57.81
55066;BME280;40964;42.114;24.220;2023-04-09T12:25:26;98111.53;;;13.70;57.49
55066;BME280;40964;42.114;24.220;2023-04-09T12:27:52;98111.19;;;13.89;56.12
55066;BME280;40964;42.114;24.220;2023-04-09T12:30:18;98112.34;;;14.05;56.04
55066;BME280;40964;42.114;24.220;2023-04-09T12:32:44;98102.78;;;13.81;54.42
55066;BME280;40964;42.114;24.220;2023-04-09T12:35:10;98103.69;;;13.51;56.00
55066;BME280;40964;42.114;24.220;2023-04-09T12:37:36;98093.59;;;13.72;56.22
55066;BME280;40964;42.114;24.220;2023-04-09T12:40:02;98092.59;;;13.84;55.50
55066;BME280;40964;42.114;24.220;2023-04-09T12:42:28;98091.75;;;14.07;53.96
55066;BME280;40964;42.114;24.220;2023-04-09T12:44:53;98095.31;;;14.01;54.77
55066;BME280;40964;42.114;24.220;2023-04-09T12:47:18;98088.78;;;14.04;54.64
55066;BME280;40964;42.114;24.220;2023-04-09T12:49:44;98089.09;;;14.07;55.11
55066;BME280;40964;42.114;24.220;2023-04-09T12:52:11;98089.91;;;14.08;54.26
55066;BME280;40964;42.114;24.220;2023-04-09T12:54:37;98079.91;;;13.75;53.22
55066;BME280;40964;42.114;24.220;2023-04-09T12:57:04;98092.00;;;13.94;53.42
55066;BME280;40964;42.114;24.220;2023-04-09T12:59:30;98078.66;;;14.01;54.92
55066;BME280;40964;42.114;24.220;2023-04-09T13:01:55;98084.06;;;13.94;54.14
55066;BME280;40964;42.114;24.220;2023-04-09T13:04:21;98066.81;;;13.80;55.21
55066;BME280;40964;42.114;24.220;2023-04-09T13:06:46;98077.03;;;14.00;56.46
55066;BME280;40964;42.114;24.220;2023-04-09T13:09:12;98065.44;;;14.12;54.33